sensor_id;sensor_type;location;lat;lon;timestamp;P1;durP1;ratioP1;P2;durP2;ratioP2
22826;SDS011;11580;52.562;13.418;2023-07-20T00:02:04;6.40;;;5.90;;
22826;SDS011;11580;52.562;13.418;2023-07-20T00:04:33;7.00;;;6.47;;
22826;SDS011;11580;52.562;13.418;2023-07-20T00:07:01;6.40;;;6.00;;
22826;SDS011;11580;52.562;13.418;2023-07-20T00:09:30;5.17;;;4.73;;
22826;SDS011;11580;52.562;13.418;2023-07-20T00:11:57;5.60;;;5.20;;
22826;SDS011;11580;52.562;13.418;2023-07-20T00:14:25;5.53;;;5.13;;
22826;SDS011;11580;52.562;13.418;2023-07-20T00:16:54;5.83;;;5.20;;
22826;SDS011;11580;52.562;13.418;2023-07-20T00:19:22;5.23;;;4.93;;
22826;SDS011;11580;52.562;13.418;2023-07-20T00:21:51;5.40;;;4.83;;
22826;SDS011;11580;52.562;13.418;2023-07-20T00:24:19;5.00;;;4.60;;
22826;SDS011;11580;52.562;13.418;2023-07-20T00:26:47;5.43;;;5.00;;
22826;SDS011;11580;52.562;13.418;2023-07-20T00:29:14;5.87;;;5.47;;
22826;SDS011;11580;52.562;13.418;2023-07-20T00:31:41;5.40;;;5.00;;
22826;SDS011;11580;52.562;13.418;2023-07-20T00:34:08;5.27;;;4.90;;
22826;SDS011;11580;52.562;13.418;2023-07-20T00:36:36;4.93;;;4.63;;
22826;SDS011;11580;52.562;13.418;2023-07-20T00:39:03;4.50;;;4.30;;
22826;SDS011;11580;52.562;13.418;2023-07-20T00:41:31;5.20;;;4.80;;
22826;SDS011;11580;52.562;13.418;2023-07-20T00:43:59;4.93;;;4.63;;
22826;SDS011;11580;52.562;13.418;2023-07-20T00:46:26;4.83;;;4.53;;
22826;SDS011;11580;52.562;13.418;2023-07-20T00:48:53;5.10;;;4.70;;
22826;SDS011;11580;52.562;13.418;2023-07-20T00:51:21;4.70;;;4.40;;
22826;SDS011;11580;52.562;13.418;2023-07-20T00:53:51;4.83;;;4.53;;
22826;SDS011;11580;52.562;13.418;2023-07-20T00:56:19;5.83;;;5.33;;
22826;SDS011;11580;52.562;13.418;2023-07-20T00:58:49;5.67;;;5.27;;
22826;SDS011;11580;52.562;13.418;2023-07-20T01:01:17;5.00;;;4.60;;
22826;SDS011;11580;52.562;13.418;2023-07-20T01:03:46;5.43;;;4.97;;
22826;SDS011;11580;52.562;13.418;2023-07-20T01:06:15;5.40;;;5.00;;
22826;SDS011;11580;52.562;13.418;2023-07-20T01:08:57;6.30;;;5.37;;
22826;SDS011;11580;52.562;13.418;2023-07-20T01:11:38;5.60;;;5.20;;
22826;SDS011;11580;52.562;13.418;2023-07-20T01:14:14;5.10;;;4.80;;
22826;SDS011;11580;52.562;13.418;2023-07-20T01:16:43;5.47;;;5.10;;
22826;SDS011;11580;52.562;13.418;2023-07-20T01:19:10;5.37;;;5.07;;
22826;SDS011;11580;52.562;13.418;2023-07-20T01:21:40;5.53;;;5.13;;
22826;SDS011;11580;52.562;13.418;2023-07-20T01:24:32;5.00;;;4.70;;
22826;SDS011;11580;52.562;13.418;2023-07-20T01:27:22;5.40;;;5.00;;
22826;SDS011;11580;52.562;13.418;2023-07-20T01:30:28;5.97;;;5.57;;
22826;SDS011;11580;52.562;13.418;2023-07-20T01:33:15;5.87;;;5.40;;
22826;SDS011;11580;52.562;13.418;2023-07-20T01:35:46;5.93;;;5.50;;
22826;SDS011;11580;52.562;13.418;2023-07-20T01:38:19;6.50;;;6.00;;
22826;SDS011;11580;52.562;13.418;2023-07-20T01:40:48;5.77;;;5.33;;
22826;SDS011;11580;52.562;13.418;2023-07-20T01:43:17;7.00;;;6.50;;
22826;SDS011;11580;52.562;13.418;2023-07-20T01:45:45;6.30;;;5.80;;
22826;SDS011;11580;52.562;13.418;2023-07-20T01:48:12;6.30;;;5.90;;
22826;SDS011;11580;52.562;13.418;2023-07-20T01:50:42;5.67;;;5.17;;
22826;SDS011;11580;52.562;13.418;2023-07-20T01:53:10;5.80;;;5.43;;
22826;SDS011;11580;52.562;13.418;2023-07-20T01:55:37;6.30;;;5.80;;
22826;SDS011;11580;52.562;13.418;2023-07-20T01:58:04;7.30;;;6.80;;
22826;SDS011;11580;52.562;13.418;2023-07-20T02:00:31;7.20;;;6.80;;
22826;SDS011;11580;52.562;13.418;2023-07-20T02:02:59;6.40;;;6.00;;
22826;SDS011;11580;52.562;13.418;2023-07-20T02:05:26;5.63;;;5.23;;
22826;SDS011;11580;52.562;13.418;2023-07-20T02:07:54;6.03;;;5.70;;
22826;SDS011;11580;52.562;13.418;2023-07-20T02:10:21;5.73;;;5.37;;
22826;SDS011;11580;52.562;13.418;2023-07-20T02:12:49;6.00;;;5.70;;
22826;SDS011;11580;52.562;13.418;2023-07-20T02:15:16;5.87;;;5.53;;
22826;SDS011;11580;52.562;13.418;2023-07-20T02:17:44;6.40;;;5.90;;
22826;SDS011;11580;52.562;13.418;2023-07-20T02:20:11;6.30;;;5.90;;
22826;SDS011;11580;52.562;13.418;2023-07-20T02:22:39;6.63;;;6.13;;
22826;SDS011;11580;52.562;13.418;2023-07-20T02:25:08;6.17;;;5.77;;
22826;SDS011;11580;52.562;13.418;2023-07-20T02:27:36;5.90;;;5.60;;
22826;SDS011;11580;52.562;13.418;2023-07-20T02:30:05;8.23;;;7.63;;
22826;SDS011;11580;52.562;13.418;2023-07-20T02:32:34;7.17;;;6.77;;
22826;SDS011;11580;52.562;13.418;2023-07-20T02:35:01;7.90;;;7.10;;
22826;SDS011;11580;52.562;13.418;2023-07-20T02:37:29;7.47;;;7.07;;
22826;SDS011;11580;52.562;13.418;2023-07-20T02:39:57;8.27;;;7.57;;
22826;SDS011;11580;52.562;13.418;2023-07-20T02:42:27;8.30;;;7.60;;
22826;SDS011;11580;52.562;13.418;2023-07-20T02:44:55;8.70;;;8.00;;
22826;SDS011;11580;52.562;13.418;2023-07-20T02:47:22;10.03;;;9.33;;
22826;SDS011;11580;52.562;13.418;2023-07-20T02:49:49;9.60;;;9.00;;
22826;SDS011;11580;52.562;13.418;2023-07-20T02:52:16;10.43;;;9.63;;
22826;SDS011;11580;52.562;13.418;2023-07-20T02:54:44;9.53;;;8.93;;
22826;SDS011;11580;52.562;13.418;2023-07-20T02:57:11;10.07;;;9.27;;
22826;SDS011;11580;52.562;13.418;2023-07-20T02:59:39;10.67;;;9.87;;
22826;SDS011;11580;52.562;13.418;2023-07-20T03:02:06;9.97;;;9.17;;
22826;SDS011;11580;52.562;13.418;2023-07-20T03:04:35;9.57;;;8.70;;
22826;SDS011;11580;52.562;13.418;2023-07-20T03:07:03;9.60;;;8.90;;
22826;SDS011;11580;52.562;13.418;2023-07-20T03:09:32;9.93;;;9.13;;
22826;SDS011;11580;52.562;13.418;2023-07-20T03:11:59;10.60;;;9.80;;
22826;SDS011;11580;52.562;13.418;2023-07-20T03:14:28;12.07;;;10.47;;
22826;SDS011;11580;52.562;13.418;2023-07-20T03:16:57;11.00;;;10.20;;
22826;SDS011;11580;52.562;13.418;2023-07-20T03:19:24;11.00;;;10.10;;
22826;SDS011;11580;52.562;13.418;2023-07-20T03:21:51;9.80;;;9.00;;
22826;SDS011;11580;52.562;13.418;2023-07-20T03:24:18;11.23;;;10.23;;
22826;SDS011;11580;52.562;13.418;2023-07-20T03:26:46;10.80;;;10.00;;
22826;SDS011;11580;52.562;13.418;2023-07-20T03:29:14;10.53;;;9.70;;
22826;SDS011;11580;52.562;13.418;2023-07-20T03:31:43;10.73;;;9.93;;
22826;SDS011;11580;52.562;13.418;2023-07-20T03:34:11;11.23;;;10.10;;
22826;SDS011;11580;52.562;13.418;2023-07-20T03:36:39;11.27;;;10.37;;
22826;SDS011;11580;52.562;13.418;2023-07-20T03:39:06;12.23;;;11.13;;
22826;SDS011;11580;52.562;13.418;2023-07-20T03:41:33;12.47;;;11.43;;
22826;SDS011;11580;52.562;13.418;2023-07-20T03:44:00;11.30;;;10.50;;
22826;SDS011;11580;52.562;13.418;2023-07-20T03:46:27;13.67;;;12.47;;
22826;SDS011;11580;52.562;13.418;2023-07-20T03:48:54;12.37;;;11.47;;
22826;SDS011;11580;52.562;13.418;2023-07-20T03:51:23;11.77;;;10.77;;
22826;SDS011;11580;52.562;13.418;2023-07-20T03:53:50;11.93;;;10.93;;
22826;SDS011;11580;52.562;13.418;2023-07-20T03:56:17;11.10;;;10.30;;
22826;SDS011;11580;52.562;13.418;2023-07-20T03:58:44;11.87;;;10.93;;
22826;SDS011;11580;52.562;13.418;2023-07-20T04:01:12;12.37;;;11.40;;
22826;SDS011;11580;52.562;13.418;2023-07-20T04:03:40;12.40;;;11.40;;
22826;SDS011;11580;52.562;13.418;2023-07-20T04:06:07;11.90;;;11.00;;
22826;SDS011;11580;52.562;13.418;2023-07-20T04:08:36;10.83;;;10.03;;
22826;SDS011;11580;52.562;13.418;2023-07-20T04:11:03;11.53;;;10.53;;
22826;SDS011;11580;52.562;13.418;2023-07-20T04:13:30;12.33;;;11.33;;
22826;SDS011;11580;52.562;13.418;2023-07-20T04:15:59;11.80;;;11.00;;
22826;SDS011;11580;52.562;13.418;2023-07-20T04:18:27;12.50;;;11.60;;
22826;SDS011;11580;52.562;13.418;2023-07-20T04:20:55;11.97;;;10.97;;
22826;SDS011;11580;52.562;13.418;2023-07-20T04:23:22;11.27;;;10.47;;
22826;SDS011;11580;52.562;13.418;2023-07-20T04:25:52;11.47;;;10.37;;
22826;SDS011;11580;52.562;13.418;2023-07-20T04:28:19;13.10;;;12.03;;
22826;SDS011;11580;52.562;13.418;2023-07-20T04:30:48;13.60;;;12.60;;
22826;SDS011;11580;52.562;13.418;2023-07-20T04:33:16;13.37;;;12.27;;
22826;SDS011;11580;52.562;13.418;2023-07-20T04:35:47;11.87;;;11.03;;
22826;SDS011;11580;52.562;13.418;2023-07-20T04:38:23;12.80;;;11.70;;
22826;SDS011;11580;52.562;13.418;2023-07-20T04:41:13;10.97;;;10.17;;
22826;SDS011;11580;52.562;13.418;2023-07-20T04:43:44;10.90;;;10.00;;
22826;SDS011;11580;52.562;13.418;2023-07-20T04:46:18;10.63;;;9.80;;
22826;SDS011;11580;52.562;13.418;2023-07-20T04:48:46;11.63;;;10.63;;
22826;SDS011;11580;52.562;13.418;2023-07-20T04:51:14;10.23;;;9.53;;
22826;SDS011;11580;52.562;13.418;2023-07-20T04:53:46;11.30;;;10.50;;
22826;SDS011;11580;52.562;13.418;2023-07-20T04:56:15;10.50;;;9.80;;
22826;SDS011;11580;52.562;13.418;2023-07-20T04:58:42;10.20;;;9.50;;
22826;SDS011;11580;52.562;13.418;2023-07-20T05:01:10;9.47;;;8.80;;
22826;SDS011;11580;52.562;13.418;2023-07-20T05:03:38;9.57;;;8.97;;
22826;SDS011;11580;52.562;13.418;2023-07-20T05:06:07;10.27;;;9.57;;
22826;SDS011;11580;52.562;13.418;2023-07-20T05:08:34;9.30;;;8.67;;
22826;SDS011;11580;52.562;13.418;2023-07-20T05:11:01;8.87;;;8.27;;
22826;SDS011;11580;52.562;13.418;2023-07-20T05:13:30;9.10;;;8.50;;
22826;SDS011;11580;52.562;13.418;2023-07-20T05:15:58;7.90;;;7.40;;
22826;SDS011;11580;52.562;13.418;2023-07-20T05:18:25;8.70;;;8.10;;
22826;SDS011;11580;52.562;13.418;2023-07-20T05:20:52;8.47;;;7.80;;
22826;SDS011;11580;52.562;13.418;2023-07-20T05:23:20;8.10;;;7.40;;
22826;SDS011;11580;52.562;13.418;2023-07-20T05:25:53;8.60;;;8.00;;
22826;SDS011;11580;52.562;13.418;2023-07-20T05:28:21;8.60;;;8.00;;
22826;SDS011;11580;52.562;13.418;2023-07-20T05:30:50;9.43;;;8.83;;
22826;SDS011;11580;52.562;13.418;2023-07-20T05:33:17;9.53;;;8.93;;
22826;SDS011;11580;52.562;13.418;2023-07-20T05:35:45;9.33;;;8.73;;
22826;SDS011;11580;52.562;13.418;2023-07-20T05:38:12;9.50;;;8.83;;
22826;SDS011;11580;52.562;13.418;2023-07-20T05:40:40;9.83;;;9.13;;
22826;SDS011;11580;52.562;13.418;2023-07-20T05:43:08;8.77;;;8.13;;
22826;SDS011;11580;52.562;13.418;2023-07-20T05:45:35;9.03;;;8.33;;
22826;SDS011;11580;52.562;13.418;2023-07-20T05:48:04;7.60;;;7.17;;
22826;SDS011;11580;52.562;13.418;2023-07-20T05:50:32;10.03;;;9.23;;
22826;SDS011;11580;52.562;13.418;2023-07-20T05:52:59;9.67;;;8.97;;
22826;SDS011;11580;52.562;13.418;2023-07-20T05:55:26;8.80;;;8.10;;
22826;SDS011;11580;52.562;13.418;2023-07-20T05:57:53;7.67;;;7.23;;
22826;SDS011;11580;52.562;13.418;2023-07-20T06:00:21;8.37;;;7.80;;
22826;SDS011;11580;52.562;13.418;2023-07-20T06:02:51;9.10;;;8.40;;
22826;SDS011;11580;52.562;13.418;2023-07-20T06:05:21;9.30;;;8.60;;
22826;SDS011;11580;52.562;13.418;2023-07-20T06:07:48;8.73;;;8.13;;
22826;SDS011;11580;52.562;13.418;2023-07-20T06:10:16;7.60;;;7.10;;
22826;SDS011;11580;52.562;13.418;2023-07-20T06:12:43;6.50;;;5.90;;
22826;SDS011;11580;52.562;13.418;2023-07-20T06:15:23;6.37;;;5.87;;
22826;SDS011;11580;52.562;13.418;2023-07-20T06:17:53;5.63;;;5.30;;
22826;SDS011;11580;52.562;13.418;2023-07-20T06:20:23;5.83;;;5.33;;
22826;SDS011;11580;52.562;13.418;2023-07-20T06:22:50;5.20;;;4.90;;
22826;SDS011;11580;52.562;13.418;2023-07-20T06:25:17;4.10;;;3.80;;
22826;SDS011;11580;52.562;13.418;2023-07-20T06:27:45;4.43;;;4.13;;
22826;SDS011;11580;52.562;13.418;2023-07-20T06:30:13;5.30;;;4.70;;
22826;SDS011;11580;52.562;13.418;2023-07-20T06:32:40;4.40;;;4.10;;
22826;SDS011;11580;52.562;13.418;2023-07-20T06:35:07;3.90;;;3.70;;
22826;SDS011;11580;52.562;13.418;2023-07-20T06:37:36;4.10;;;3.90;;
22826;SDS011;11580;52.562;13.418;2023-07-20T06:40:03;3.60;;;3.40;;
22826;SDS011;11580;52.562;13.418;2023-07-20T06:42:34;3.33;;;3.13;;
22826;SDS011;11580;52.562;13.418;2023-07-20T06:45:02;3.70;;;3.50;;
22826;SDS011;11580;52.562;13.418;2023-07-20T06:47:30;3.70;;;3.43;;
22826;SDS011;11580;52.562;13.418;2023-07-20T06:49:57;4.17;;;3.77;;
22826;SDS011;11580;52.562;13.418;2023-07-20T06:52:24;4.50;;;4.20;;
22826;SDS011;11580;52.562;13.418;2023-07-20T06:54:53;3.20;;;3.00;;
22826;SDS011;11580;52.562;13.418;2023-07-20T06:57:20;3.10;;;2.77;;
22826;SDS011;11580;52.562;13.418;2023-07-20T06:59:47;3.20;;;3.00;;
22826;SDS011;11580;52.562;13.418;2023-07-20T07:02:14;2.80;;;2.60;;
22826;SDS011;11580;52.562;13.418;2023-07-20T07:04:41;2.57;;;2.43;;
22826;SDS011;11580;52.562;13.418;2023-07-20T07:07:09;2.70;;;2.50;;
22826;SDS011;11580;52.562;13.418;2023-07-20T07:09:36;2.93;;;2.73;;
22826;SDS011;11580;52.562;13.418;2023-07-20T07:12:05;2.90;;;2.70;;
22826;SDS011;11580;52.562;13.418;2023-07-20T07:14:33;2.90;;;2.70;;
22826;SDS011;11580;52.562;13.418;2023-07-20T07:17:01;3.03;;;2.73;;
22826;SDS011;11580;52.562;13.418;2023-07-20T07:19:28;2.70;;;2.50;;
22826;SDS011;11580;52.562;13.418;2023-07-20T07:21:55;2.80;;;2.60;;
22826;SDS011;11580;52.562;13.418;2023-07-20T07:24:22;2.53;;;2.33;;
22826;SDS011;11580;52.562;13.418;2023-07-20T07:26:49;2.80;;;2.60;;
22826;SDS011;11580;52.562;13.418;2023-07-20T07:29:18;2.67;;;2.50;;
22826;SDS011;11580;52.562;13.418;2023-07-20T07:31:45;2.40;;;2.20;;
22826;SDS011;11580;52.562;13.418;2023-07-20T07:34:12;2.20;;;2.10;;
22826;SDS011;11580;52.562;13.418;2023-07-20T07:36:39;2.57;;;2.43;;
22826;SDS011;11580;52.562;13.418;2023-07-20T07:39:06;2.20;;;2.10;;
22826;SDS011;11580;52.562;13.418;2023-07-20T07:41:34;2.20;;;2.00;;
22826;SDS011;11580;52.562;13.418;2023-07-20T07:44:01;2.10;;;2.00;;
22826;SDS011;11580;52.562;13.418;2023-07-20T07:46:30;2.07;;;1.93;;
22826;SDS011;11580;52.562;13.418;2023-07-20T07:48:57;2.03;;;1.93;;
22826;SDS011;11580;52.562;13.418;2023-07-20T07:51:25;1.80;;;1.70;;
22826;SDS011;11580;52.562;13.418;2023-07-20T07:53:53;1.93;;;1.83;;
22826;SDS011;11580;52.562;13.418;2023-07-20T07:56:20;1.80;;;1.70;;
22826;SDS011;11580;52.562;13.418;2023-07-20T07:58:48;1.70;;;1.60;;
22826;SDS011;11580;52.562;13.418;2023-07-20T08:01:16;1.70;;;1.60;;
22826;SDS011;11580;52.562;13.418;2023-07-20T08:03:45;1.73;;;1.63;;
22826;SDS011;11580;52.562;13.418;2023-07-20T08:06:13;1.40;;;1.30;;
22826;SDS011;11580;52.562;13.418;2023-07-20T08:08:40;1.63;;;1.53;;
22826;SDS011;11580;52.562;13.418;2023-07-20T08:11:07;1.70;;;1.47;;
22826;SDS011;11580;52.562;13.418;2023-07-20T08:13:35;1.20;;;1.20;;
22826;SDS011;11580;52.562;13.418;2023-07-20T08:16:03;1.43;;;1.33;;
22826;SDS011;11580;52.562;13.418;2023-07-20T08:18:30;1.50;;;1.40;;
22826;SDS011;11580;52.562;13.418;2023-07-20T08:21:01;1.30;;;1.20;;
22826;SDS011;11580;52.562;13.418;2023-07-20T08:23:28;1.30;;;1.20;;
22826;SDS011;11580;52.562;13.418;2023-07-20T08:25:55;1.30;;;1.23;;
22826;SDS011;11580;52.562;13.418;2023-07-20T08:28:22;2.13;;;2.00;;
22826;SDS011;11580;52.562;13.418;2023-07-20T08:30:51;1.73;;;1.40;;
22826;SDS011;11580;52.562;13.418;2023-07-20T08:33:18;1.33;;;1.23;;
22826;SDS011;11580;52.562;13.418;2023-07-20T08:35:46;1.47;;;1.00;;
22826;SDS011;11580;52.562;13.418;2023-07-20T08:38:15;0.90;;;0.90;;
22826;SDS011;11580;52.562;13.418;2023-07-20T08:40:43;1.20;;;1.10;;
22826;SDS011;11580;52.562;13.418;2023-07-20T08:43:12;2.20;;;1.20;;
22826;SDS011;11580;52.562;13.418;2023-07-20T08:45:42;1.17;;;1.17;;
22826;SDS011;11580;52.562;13.418;2023-07-20T08:48:12;1.00;;;1.00;;
22826;SDS011;11580;52.562;13.418;2023-07-20T08:50:41;1.03;;;0.90;;
22826;SDS011;11580;52.562;13.418;2023-07-20T08:53:11;0.90;;;0.90;;
22826;SDS011;11580;52.562;13.418;2023-07-20T08:55:40;0.90;;;0.90;;
22826;SDS011;11580;52.562;13.418;2023-07-20T08:58:11;0.93;;;0.90;;
22826;SDS011;11580;52.562;13.418;2023-07-20T09:00:39;0.90;;;0.70;;
22826;SDS011;11580;52.562;13.418;2023-07-20T09:03:09;0.70;;;0.63;;
22826;SDS011;11580;52.562;13.418;2023-07-20T09:05:37;1.00;;;0.90;;
22826;SDS011;11580;52.562;13.418;2023-07-20T09:08:05;1.40;;;0.90;;
22826;SDS011;11580;52.562;13.418;2023-07-20T09:10:33;0.83;;;0.83;;
22826;SDS011;11580;52.562;13.418;2023-07-20T09:13:01;1.00;;;0.90;;
22826;SDS011;11580;52.562;13.418;2023-07-20T09:15:29;0.80;;;0.80;;
22826;SDS011;11580;52.562;13.418;2023-07-20T09:17:56;1.23;;;1.13;;
22826;SDS011;11580;52.562;13.418;2023-07-20T09:20:30;1.40;;;1.10;;
22826;SDS011;11580;52.562;13.418;2023-07-20T09:22:59;1.33;;;0.83;;
22826;SDS011;11580;52.562;13.418;2023-07-20T09:25:31;1.03;;;0.90;;
22826;SDS011;11580;52.562;13.418;2023-07-20T09:28:01;1.50;;;0.90;;
22826;SDS011;11580;52.562;13.418;2023-07-20T09:30:30;1.00;;;0.90;;
22826;SDS011;11580;52.562;13.418;2023-07-20T09:32:58;1.93;;;1.20;;
22826;SDS011;11580;52.562;13.418;2023-07-20T09:35:26;1.63;;;1.00;;
22826;SDS011;11580;52.562;13.418;2023-07-20T09:37:54;3.33;;;1.53;;
22826;SDS011;11580;52.562;13.418;2023-07-20T09:40:25;1.20;;;0.90;;
22826;SDS011;11580;52.562;13.418;2023-07-20T09:42:53;1.60;;;0.90;;
22826;SDS011;11580;52.562;13.418;2023-07-20T09:45:29;0.90;;;0.90;;
22826;SDS011;11580;52.562;13.418;2023-07-20T09:48:02;1.70;;;0.90;;
22826;SDS011;11580;52.562;13.418;2023-07-20T09:50:31;0.83;;;0.83;;
22826;SDS011;11580;52.562;13.418;2023-07-20T09:52:58;0.97;;;0.97;;
22826;SDS011;11580;52.562;13.418;2023-07-20T09:55:28;1.30;;;1.20;;
22826;SDS011;11580;52.562;13.418;2023-07-20T09:57:56;1.10;;;1.00;;
22826;SDS011;11580;52.562;13.418;2023-07-20T10:00:25;0.90;;;0.90;;
22826;SDS011;11580;52.562;13.418;2023-07-20T10:02:53;1.23;;;1.13;;
22826;SDS011;11580;52.562;13.418;2023-07-20T10:05:26;1.30;;;1.20;;
22826;SDS011;11580;52.562;13.418;2023-07-20T10:08:00;0.83;;;0.80;;
22826;SDS011;11580;52.562;13.418;2023-07-20T10:10:31;1.30;;;1.20;;
22826;SDS011;11580;52.562;13.418;2023-07-20T10:13:01;1.20;;;1.10;;
22826;SDS011;11580;52.562;13.418;2023-07-20T10:15:30;1.20;;;1.10;;
22826;SDS011;11580;52.562;13.418;2023-07-20T10:18:06;2.43;;;1.30;;
22826;SDS011;11580;52.562;13.418;2023-07-20T10:20:39;1.17;;;1.10;;
22826;SDS011;11580;52.562;13.418;2023-07-20T10:23:08;1.00;;;0.90;;
22826;SDS011;11580;52.562;13.418;2023-07-20T10:25:35;1.17;;;1.17;;
22826;SDS011;11580;52.562;13.418;2023-07-20T10:28:04;1.13;;;1.07;;
22826;SDS011;11580;52.562;13.418;2023-07-20T10:30:32;0.97;;;0.97;;
22826;SDS011;11580;52.562;13.418;2023-07-20T10:33:00;1.00;;;0.90;;
22826;SDS011;11580;52.562;13.418;2023-07-20T10:35:34;0.70;;;0.70;;
22826;SDS011;11580;52.562;13.418;2023-07-20T10:38:18;1.20;;;1.10;;
22826;SDS011;11580;52.562;13.418;2023-07-20T10:40:53;1.00;;;0.97;;
22826;SDS011;11580;52.562;13.418;2023-07-20T10:43:21;1.17;;;0.90;;
22826;SDS011;11580;52.562;13.418;2023-07-20T10:45:49;0.90;;;0.87;;
22826;SDS011;11580;52.562;13.418;2023-07-20T10:48:19;2.70;;;1.50;;
22826;SDS011;11580;52.562;13.418;2023-07-20T10:53:48;1.00;;;0.90;;
22826;SDS011;11580;52.562;13.418;2023-07-20T10:56:19;1.03;;;0.93;;
22826;SDS011;11580;52.562;13.418;2023-07-20T10:58:48;1.10;;;1.00;;
22826;SDS011;11580;52.562;13.418;2023-07-20T11:01:17;1.53;;;1.30;;
22826;SDS011;11580;52.562;13.418;2023-07-20T11:03:49;1.00;;;1.00;;
22826;SDS011;11580;52.562;13.418;2023-07-20T11:06:30;1.33;;;1.23;;
22826;SDS011;11580;52.562;13.418;2023-07-20T11:09:05;1.00;;;0.90;;
22826;SDS011;11580;52.562;13.418;2023-07-20T11:11:36;2.07;;;1.10;;
22826;SDS011;11580;52.562;13.418;2023-07-20T11:14:06;1.13;;;1.03;;
22826;SDS011;11580;52.562;13.418;2023-07-20T11:16:35;1.00;;;1.00;;
22826;SDS011;11580;52.562;13.418;2023-07-20T11:19:14;0.93;;;0.93;;
22826;SDS011;11580;52.562;13.418;2023-07-20T11:21:44;1.10;;;0.97;;
22826;SDS011;11580;52.562;13.418;2023-07-20T11:24:13;0.73;;;0.73;;
22826;SDS011;11580;52.562;13.418;2023-07-20T11:26:41;1.10;;;1.00;;
22826;SDS011;11580;52.562;13.418;2023-07-20T11:29:12;0.77;;;0.77;;
22826;SDS011;11580;52.562;13.418;2023-07-20T11:31:40;0.70;;;0.70;;
22826;SDS011;11580;52.562;13.418;2023-07-20T11:34:10;1.27;;;1.17;;
22826;SDS011;11580;52.562;13.418;2023-07-20T11:36:39;0.80;;;0.80;;
22826;SDS011;11580;52.562;13.418;2023-07-20T11:39:08;0.87;;;0.87;;
22826;SDS011;11580;52.562;13.418;2023-07-20T11:41:36;1.17;;;0.87;;
22826;SDS011;11580;52.562;13.418;2023-07-20T11:44:05;0.70;;;0.70;;
22826;SDS011;11580;52.562;13.418;2023-07-20T11:46:33;0.70;;;0.70;;
22826;SDS011;11580;52.562;13.418;2023-07-20T11:49:01;0.70;;;0.70;;
22826;SDS011;11580;52.562;13.418;2023-07-20T11:51:29;1.67;;;0.70;;
22826;SDS011;11580;52.562;13.418;2023-07-20T11:53:59;0.60;;;0.60;;
22826;SDS011;11580;52.562;13.418;2023-07-20T11:56:28;0.93;;;0.67;;
22826;SDS011;11580;52.562;13.418;2023-07-20T11:58:56;0.90;;;0.90;;
22826;SDS011;11580;52.562;13.418;2023-07-20T12:01:27;1.20;;;0.90;;
22826;SDS011;11580;52.562;13.418;2023-07-20T12:03:57;0.97;;;0.70;;
22826;SDS011;11580;52.562;13.418;2023-07-20T12:06:27;0.80;;;0.80;;
22826;SDS011;11580;52.562;13.418;2023-07-20T12:08:56;0.90;;;0.70;;
22826;SDS011;11580;52.562;13.418;2023-07-20T12:11:32;0.80;;;0.80;;
22826;SDS011;11580;52.562;13.418;2023-07-20T12:14:04;0.87;;;0.87;;
22826;SDS011;11580;52.562;13.418;2023-07-20T12:16:34;1.13;;;1.03;;
22826;SDS011;11580;52.562;13.418;2023-07-20T12:19:04;1.47;;;0.80;;
22826;SDS011;11580;52.562;13.418;2023-07-20T12:21:34;0.70;;;0.70;;
22826;SDS011;11580;52.562;13.418;2023-07-20T12:24:04;1.23;;;1.10;;
22826;SDS011;11580;52.562;13.418;2023-07-20T12:26:33;0.77;;;0.77;;
22826;SDS011;11580;52.562;13.418;2023-07-20T12:29:00;1.00;;;0.90;;
22826;SDS011;11580;52.562;13.418;2023-07-20T12:31:29;0.73;;;0.70;;
22826;SDS011;11580;52.562;13.418;2023-07-20T12:33:57;1.10;;;0.80;;
22826;SDS011;11580;52.562;13.418;2023-07-20T12:36:26;0.90;;;0.80;;
22826;SDS011;11580;52.562;13.418;2023-07-20T12:38:53;0.87;;;0.87;;
22826;SDS011;11580;52.562;13.418;2023-07-20T12:41:21;0.80;;;0.80;;
22826;SDS011;11580;52.562;13.418;2023-07-20T12:43:49;1.20;;;0.93;;
22826;SDS011;11580;52.562;13.418;2023-07-20T12:46:16;0.97;;;0.83;;
22826;SDS011;11580;52.562;13.418;2023-07-20T12:48:43;1.10;;;1.07;;
22826;SDS011;11580;52.562;13.418;2023-07-20T12:51:11;1.20;;;1.10;;
22826;SDS011;11580;52.562;13.418;2023-07-20T12:53:38;0.87;;;0.87;;
22826;SDS011;11580;52.562;13.418;2023-07-20T12:56:05;0.70;;;0.70;;
22826;SDS011;11580;52.562;13.418;2023-07-20T12:58:34;0.90;;;0.90;;
22826;SDS011;11580;52.562;13.418;2023-07-20T13:01:02;0.70;;;0.67;;
22826;SDS011;11580;52.562;13.418;2023-07-20T13:03:29;0.90;;;0.90;;
22826;SDS011;11580;52.562;13.418;2023-07-20T13:05:56;1.70;;;0.70;;
22826;SDS011;11580;52.562;13.418;2023-07-20T13:08:24;0.80;;;0.80;;
22826;SDS011;11580;52.562;13.418;2023-07-20T13:10:52;0.80;;;0.80;;
22826;SDS011;11580;52.562;13.418;2023-07-20T13:13:19;0.70;;;0.70;;
22826;SDS011;11580;52.562;13.418;2023-07-20T13:15:48;1.83;;;1.10;;
22826;SDS011;11580;52.562;13.418;2023-07-20T13:18:15;1.00;;;0.77;;
22826;SDS011;11580;52.562;13.418;2023-07-20T13:20:43;1.03;;;0.80;;
22826;SDS011;11580;52.562;13.418;2023-07-20T13:23:10;0.80;;;0.80;;
22826;SDS011;11580;52.562;13.418;2023-07-20T13:25:37;0.80;;;0.80;;
22826;SDS011;11580;52.562;13.418;2023-07-20T13:28:05;1.00;;;0.70;;
22826;SDS011;11580;52.562;13.418;2023-07-20T13:30:32;0.90;;;0.90;;
22826;SDS011;11580;52.562;13.418;2023-07-20T13:33:00;0.93;;;0.93;;
22826;SDS011;11580;52.562;13.418;2023-07-20T13:35:28;0.70;;;0.70;;
22826;SDS011;11580;52.562;13.418;2023-07-20T13:37:55;0.80;;;0.80;;
22826;SDS011;11580;52.562;13.418;2023-07-20T13:40:22;1.63;;;0.80;;
22826;SDS011;11580;52.562;13.418;2023-07-20T13:42:49;2.87;;;1.10;;
22826;SDS011;11580;52.562;13.418;2023-07-20T13:45:16;0.80;;;0.80;;
22826;SDS011;11580;52.562;13.418;2023-07-20T13:47:43;1.10;;;1.00;;
22826;SDS011;11580;52.562;13.418;2023-07-20T13:50:12;0.80;;;0.70;;
22826;SDS011;11580;52.562;13.418;2023-07-20T13:52:40;0.70;;;0.70;;
22826;SDS011;11580;52.562;13.418;2023-07-20T13:55:07;1.00;;;0.90;;
22826;SDS011;11580;52.562;13.418;2023-07-20T13:57:35;0.90;;;0.90;;
22826;SDS011;11580;52.562;13.418;2023-07-20T14:00:02;1.47;;;0.80;;
22826;SDS011;11580;52.562;13.418;2023-07-20T14:02:37;1.37;;;0.80;;
22826;SDS011;11580;52.562;13.418;2023-07-20T14:05:04;0.73;;;0.73;;
22826;SDS011;11580;52.562;13.418;2023-07-20T14:07:33;0.87;;;0.87;;
22826;SDS011;11580;52.562;13.418;2023-07-20T14:10:01;0.80;;;0.80;;
22826;SDS011;11580;52.562;13.418;2023-07-20T14:12:28;1.23;;;1.03;;
22826;SDS011;11580;52.562;13.418;2023-07-20T14:14:55;0.80;;;0.80;;
22826;SDS011;11580;52.562;13.418;2023-07-20T14:17:22;0.77;;;0.77;;
22826;SDS011;11580;52.562;13.418;2023-07-20T14:19:50;1.03;;;1.00;;
22826;SDS011;11580;52.562;13.418;2023-07-20T14:22:17;1.00;;;1.00;;
22826;SDS011;11580;52.562;13.418;2023-07-20T14:24:46;1.60;;;1.10;;
22826;SDS011;11580;52.562;13.418;2023-07-20T14:27:13;1.00;;;0.90;;
22826;SDS011;11580;52.562;13.418;2023-07-20T14:29:40;0.83;;;0.83;;
22826;SDS011;11580;52.562;13.418;2023-07-20T14:32:07;1.10;;;1.00;;
22826;SDS011;11580;52.562;13.418;2023-07-20T14:34:34;1.20;;;0.80;;
22826;SDS011;11580;52.562;13.418;2023-07-20T14:37:01;1.10;;;1.00;;
22826;SDS011;11580;52.562;13.418;2023-07-20T14:39:30;0.80;;;0.80;;
22826;SDS011;11580;52.562;13.418;2023-07-20T14:41:59;0.60;;;0.60;;
22826;SDS011;11580;52.562;13.418;2023-07-20T14:44:27;1.00;;;0.90;;